createdAt,value
2022-10-19T00:02:08.624Z,9.80
2022-10-19T00:04:35.332Z,9.90
2022-10-19T00:07:01.918Z,9.90
2022-10-19T00:09:29.210Z,9.80
2022-10-19T00:11:55.799Z,9.90
2022-10-19T00:14:23.979Z,9.90
2022-10-19T00:16:52.899Z,9.90
2022-10-19T00:19:22.595Z,10.00
2022-10-19T00:24:21.517Z,10.10
2022-10-19T00:26:48.176Z,10.10
2022-10-19T00:29:15.178Z,10.00
2022-10-19T00:31:41.885Z,10.00
2022-10-19T00:34:09.038Z,10.10
2022-10-19T00:36:38.555Z,10.10
2022-10-19T00:39:07.534Z,10.10
2022-10-19T00:41:36.300Z,10.20
2022-10-19T00:44:13.678Z,10.30
2022-10-19T00:46:42.772Z,10.30
2022-10-19T00:49:12.851Z,10.30
2022-10-19T00:51:46.881Z,10.30
2022-10-19T00:54:15.323Z,10.20
2022-10-19T00:56:44.539Z,10.20
2022-10-19T00:59:14.814Z,10.20
2022-10-19T01:01:44.189Z,10.20
2022-10-19T01:04:12.122Z,10.20
2022-10-19T01:06:39.795Z,10.10
2022-10-19T01:09:07.053Z,10.10
2022-10-19T01:11:42.467Z,10.10
2022-10-19T01:14:30.124Z,10.00
2022-10-19T01:17:24.475Z,9.90
2022-10-19T01:20:33.168Z,9.90
2022-10-19T01:23:10.178Z,9.80
2022-10-19T01:25:51.856Z,9.80
2022-10-19T01:29:00.541Z,9.70
2022-10-19T01:32:03.570Z,9.70
2022-10-19T01:34:53.457Z,9.60
2022-10-19T01:37:37.969Z,9.60
2022-10-19T01:40:10.955Z,9.60
2022-10-19T01:42:51.222Z,9.60
2022-10-19T01:45:50.258Z,9.60
2022-10-19T01:48:25.601Z,9.60
2022-10-19T01:51:00.047Z,9.70
2022-10-19T01:53:31.393Z,9.70
2022-10-19T01:56:00.813Z,9.70
2022-10-19T01:58:31.326Z,9.70
2022-10-19T02:01:03.278Z,9.80
2022-10-19T02:03:30.855Z,9.80
2022-10-19T02:05:59.457Z,9.90
2022-10-19T02:08:31.374Z,9.80
2022-10-19T02:10:59.726Z,9.90
2022-10-19T02:13:27.902Z,10.00
2022-10-19T02:15:57.962Z,10.00
2022-10-19T02:18:30.754Z,10.10
2022-10-19T02:20:57.906Z,10.10
2022-10-19T02:23:26.565Z,10.10
2022-10-19T02:25:53.944Z,10.20
2022-10-19T02:28:21.720Z,10.20
2022-10-19T02:30:48.623Z,10.20
2022-10-19T02:33:15.822Z,10.20
2022-10-19T02:35:42.738Z,10.20
2022-10-19T02:38:13.377Z,10.20
2022-10-19T02:40:47.015Z,10.20
2022-10-19T02:43:19.005Z,10.20
2022-10-19T02:45:54.188Z,10.20
2022-10-19T02:48:24.674Z,10.20
2022-10-19T02:50:51.981Z,10.30
2022-10-19T02:53:18.889Z,10.40
2022-10-19T02:55:48.874Z,10.50
2022-10-19T02:58:15.891Z,10.40
2022-10-19T03:00:42.945Z,10.40
2022-10-19T03:03:10.306Z,10.40
2022-10-19T03:05:36.870Z,10.30
2022-10-19T03:08:03.590Z,10.30
2022-10-19T03:10:30.299Z,10.30
2022-10-19T03:12:59.754Z,10.40
2022-10-19T03:15:29.027Z,10.50
2022-10-19T03:17:56.514Z,10.40
2022-10-19T03:20:27.064Z,10.40
2022-10-19T03:25:25.205Z,10.30
2022-10-19T03:27:51.748Z,10.30
2022-10-19T03:30:18.326Z,10.30
2022-10-19T03:32:44.924Z,10.30
2022-10-19T03:35:11.552Z,10.30
2022-10-19T03:37:38.176Z,10.20
2022-10-19T03:40:05.242Z,10.20
2022-10-19T03:42:31.797Z,10.20
2022-10-19T03:44:58.487Z,10.20
2022-10-19T03:47:25.103Z,10.20
2022-10-19T03:49:51.772Z,10.20
2022-10-19T03:52:19.376Z,10.20
2022-10-19T03:54:49.156Z,10.20
2022-10-19T03:57:15.737Z,10.30
2022-10-19T03:59:42.277Z,10.20
2022-10-19T04:02:08.871Z,10.20
2022-10-19T04:04:35.545Z,10.30
2022-10-19T04:07:02.139Z,10.30
2022-10-19T04:09:28.706Z,10.30
2022-10-19T04:11:55.313Z,10.30
2022-10-19T04:14:32.764Z,10.30
2022-10-19T04:17:03.862Z,10.40
2022-10-19T04:19:31.189Z,10.30
2022-10-19T04:21:58.276Z,10.20
2022-10-19T04:24:25.104Z,10.20
2022-10-19T04:26:53.963Z,10.20
2022-10-19T04:29:26.349Z,10.20
2022-10-19T04:31:56.199Z,10.20
2022-10-19T04:34:22.847Z,10.20
2022-10-19T04:36:49.418Z,10.20
2022-10-19T04:39:16.122Z,10.20
2022-10-19T04:41:42.696Z,10.10
2022-10-19T04:44:09.639Z,10.20
2022-10-19T04:46:37.280Z,10.10
2022-10-19T04:49:06.049Z,10.20
2022-10-19T04:51:32.683Z,10.20
2022-10-19T04:54:00.018Z,10.20
2022-10-19T04:56:27.922Z,10.20
2022-10-19T04:58:57.351Z,10.20
2022-10-19T05:01:25.873Z,10.20
2022-10-19T05:04:00.773Z,10.10
2022-10-19T05:06:28.367Z,10.20
2022-10-19T05:08:55.559Z,10.20
2022-10-19T05:11:22.278Z,10.20
2022-10-19T05:13:49.186Z,10.20
2022-10-19T05:16:18.881Z,10.20
2022-10-19T05:18:50.264Z,10.20
2022-10-19T05:21:17.842Z,10.30
2022-10-19T05:23:44.888Z,10.40
2022-10-19T05:26:17.492Z,10.40
2022-10-19T05:28:48.443Z,10.40
2022-10-19T05:31:17.582Z,10.40
2022-10-19T05:33:44.714Z,10.50
2022-10-19T05:36:27.644Z,10.50
2022-10-19T05:38:56.358Z,10.40
2022-10-19T05:41:24.562Z,10.50
2022-10-19T05:43:59.260Z,10.50
2022-10-19T05:46:27.749Z,10.50
2022-10-19T05:48:56.039Z,10.40
2022-10-19T05:51:23.969Z,10.50
2022-10-19T05:53:50.580Z,10.40
2022-10-19T05:56:24.694Z,10.40
2022-10-19T05:58:52.040Z,10.40
2022-10-19T06:01:20.049Z,10.40
2022-10-19T06:03:50.602Z,10.40
2022-10-19T06:06:17.195Z,10.50
2022-10-19T06:08:44.897Z,10.50
2022-10-19T06:11:17.381Z,10.40
2022-10-19T06:13:45.571Z,10.40
2022-10-19T06:16:14.386Z,10.50
2022-10-19T06:18:42.566Z,10.50
2022-10-19T06:21:12.181Z,10.50
2022-10-19T06:23:39.688Z,10.60
2022-10-19T06:26:09.256Z,10.60
2022-10-19T06:28:36.883Z,10.50
2022-10-19T06:31:07.081Z,10.60
2022-10-19T06:33:36.101Z,10.70
2022-10-19T06:36:11.365Z,10.70
2022-10-19T06:38:38.639Z,10.60
2022-10-19T06:41:05.785Z,10.60
2022-10-19T06:43:32.874Z,10.70
2022-10-19T06:46:03.341Z,10.80
2022-10-19T06:48:29.909Z,10.80
2022-10-19T06:50:58.139Z,10.90
2022-10-19T06:53:24.853Z,11.00
2022-10-19T06:55:51.566Z,11.10
2022-10-19T06:58:18.155Z,11.10
2022-10-19T07:00:45.006Z,11.10
2022-10-19T07:03:11.661Z,11.10
2022-10-19T07:05:38.257Z,11.30
2022-10-19T07:08:04.943Z,11.30
2022-10-19T07:10:31.598Z,11.40
2022-10-19T07:12:58.205Z,11.50
2022-10-19T07:15:24.801Z,11.40
2022-10-19T07:17:53.048Z,11.60
2022-10-19T07:20:19.602Z,11.60
2022-10-19T07:22:46.190Z,11.70
2022-10-19T07:25:12.746Z,11.70
2022-10-19T07:27:40.445Z,11.80
2022-10-19T07:30:07.811Z,11.80
2022-10-19T07:32:34.461Z,11.90
2022-10-19T07:35:01.017Z,11.90
2022-10-19T07:37:27.606Z,12.00
2022-10-19T07:39:54.211Z,12.00
2022-10-19T07:44:52.283Z,12.20
2022-10-19T07:47:19.241Z,12.30
2022-10-19T07:49:45.792Z,12.30
2022-10-19T07:52:12.432Z,12.30
2022-10-19T07:54:39.109Z,12.40
2022-10-19T07:57:05.699Z,12.30
2022-10-19T07:59:32.400Z,12.40
2022-10-19T08:02:02.190Z,12.40
2022-10-19T08:04:55.909Z,12.50
2022-10-19T08:07:15.373Z,12.60
2022-10-19T08:09:53.138Z,12.70
2022-10-19T08:12:20.100Z,12.70
2022-10-19T08:14:47.934Z,12.80
2022-10-19T08:17:17.308Z,12.80
2022-10-19T08:19:45.311Z,12.80
2022-10-19T08:22:12.222Z,12.70
2022-10-19T08:24:39.178Z,12.80
2022-10-19T08:27:06.100Z,12.80
2022-10-19T08:29:32.660Z,12.80
2022-10-19T08:31:59.704Z,12.80
2022-10-19T08:34:26.350Z,12.90
2022-10-19T08:36:53.016Z,13.00
2022-10-19T08:39:19.609Z,12.90
2022-10-19T08:41:52.037Z,12.80
2022-10-19T08:44:36.683Z,12.70
2022-10-19T08:47:41.972Z,12.80
2022-10-19T08:50:25.043Z,12.80
2022-10-19T08:53:02.473Z,13.00
2022-10-19T08:56:04.548Z,13.10
2022-10-19T08:58:49.564Z,13.10
2022-10-19T09:01:23.581Z,13.00
2022-10-19T09:04:15.187Z,13.10
2022-10-19T09:07:00.267Z,13.30
2022-10-19T09:09:29.666Z,13.10
2022-10-19T09:12:02.802Z,13.10
2022-10-19T09:15:06.804Z,13.10
2022-10-19T09:17:33.805Z,13.30
2022-10-19T09:20:21.044Z,13.20
2022-10-19T09:23:13.279Z,13.20
2022-10-19T09:25:40.741Z,13.20
2022-10-19T09:28:17.409Z,13.20
2022-10-19T09:30:46.827Z,13.20
2022-10-19T09:33:20.069Z,13.30
2022-10-19T09:38:38.567Z,13.70
2022-10-19T09:51:00.366Z,14.00
2022-10-19T09:53:28.535Z,14.20
2022-10-19T09:56:06.649Z,14.10
2022-10-19T09:58:34.412Z,14.30
2022-10-19T10:01:02.829Z,14.30
2022-10-19T10:03:36.055Z,14.30
2022-10-19T10:06:15.014Z,14.40
2022-10-19T10:08:57.970Z,14.50
2022-10-19T10:11:29.981Z,14.70
2022-10-19T10:19:31.564Z,14.60
2022-10-19T10:21:59.585Z,14.50
2022-10-19T10:24:28.556Z,14.70
2022-10-19T10:26:58.523Z,14.70
2022-10-19T10:29:26.599Z,14.70
2022-10-19T10:32:01.364Z,14.80
2022-10-19T10:34:49.478Z,14.60
2022-10-19T10:37:24.118Z,14.70
2022-10-19T10:39:53.094Z,14.70
2022-10-19T10:42:43.753Z,14.90
2022-10-19T10:45:32.320Z,14.90
2022-10-19T10:48:14.730Z,15.00
2022-10-19T10:50:41.344Z,14.80
2022-10-19T10:53:38.991Z,14.60
2022-10-19T10:56:19.062Z,14.40
2022-10-19T10:58:51.913Z,14.50
2022-10-19T11:01:22.483Z,14.50
2022-10-19T11:04:34.087Z,14.60
2022-10-19T11:07:18.128Z,14.70
2022-10-19T11:09:50.825Z,14.70
2022-10-19T11:12:19.936Z,14.70
2022-10-19T11:14:51.011Z,14.90
2022-10-19T11:17:32.996Z,15.00
2022-10-19T11:20:00.325Z,15.20
2022-10-19T11:22:34.614Z,15.10
2022-10-19T11:25:26.320Z,15.40
2022-10-19T11:28:22.085Z,15.40
2022-10-19T11:31:03.446Z,15.20
2022-10-19T11:33:53.962Z,15.20
2022-10-19T11:36:42.008Z,15.20
2022-10-19T11:39:33.707Z,15.30
2022-10-19T11:42:39.495Z,15.10
2022-10-19T11:45:13.386Z,14.90
2022-10-19T11:48:20.981Z,15.20
2022-10-19T11:51:17.403Z,15.90
2022-10-19T11:53:58.614Z,15.90
2022-10-19T11:57:03.178Z,16.20
2022-10-19T11:59:52.110Z,16.70
2022-10-19T12:02:46.730Z,17.30
2022-10-19T12:05:17.256Z,17.50
2022-10-19T12:08:01.682Z,16.70
2022-10-19T12:10:47.087Z,16.20
2022-10-19T12:13:19.234Z,16.00
2022-10-19T12:15:55.488Z,16.00
2022-10-19T12:21:44.565Z,15.80
2022-10-19T12:24:20.107Z,16.00
2022-10-19T12:26:47.554Z,15.60
2022-10-19T12:29:19.256Z,15.40
2022-10-19T12:31:47.510Z,15.50
2022-10-19T12:34:31.337Z,15.80
2022-10-19T12:37:06.975Z,15.70
2022-10-19T12:39:45.973Z,15.50
2022-10-19T12:42:43.818Z,15.20
2022-10-19T12:45:30.295Z,14.90
2022-10-19T12:48:10.865Z,14.50
2022-10-19T12:51:01.945Z,14.30
2022-10-19T12:53:28.557Z,14.40
2022-10-19T12:56:06.054Z,14.30
2022-10-19T12:58:46.667Z,14.40
2022-10-19T13:01:18.358Z,14.60
2022-10-19T13:03:46.906Z,15.20
2022-10-19T13:06:35.373Z,16.10
2022-10-19T13:09:06.315Z,16.90
2022-10-19T13:14:11.201Z,17.60
2022-10-19T13:16:37.772Z,17.70
2022-10-19T13:19:13.211Z,17.60
2022-10-19T13:21:56.757Z,17.30
2022-10-19T13:24:26.577Z,17.00
2022-10-19T13:27:23.978Z,16.80
2022-10-19T13:29:50.687Z,16.50
2022-10-19T13:32:33.097Z,16.20
2022-10-19T13:35:32.450Z,15.70
2022-10-19T13:38:16.944Z,15.50
2022-10-19T13:40:49.636Z,15.30
2022-10-19T13:43:29.614Z,15.10
2022-10-19T13:46:08.241Z,15.00
2022-10-19T13:48:42.248Z,14.80
2022-10-19T13:51:47.652Z,14.50
2022-10-19T13:54:30.206Z,14.40
2022-10-19T13:56:56.687Z,14.30
2022-10-19T13:59:56.691Z,14.40
2022-10-19T14:02:50.411Z,14.50
2022-10-19T14:05:52.386Z,14.50
2022-10-19T14:08:34.203Z,14.70
2022-10-19T14:11:11.761Z,14.80
2022-10-19T14:13:38.353Z,14.70
2022-10-19T14:16:05.243Z,14.50
2022-10-19T14:18:34.729Z,14.40
2022-10-19T14:21:09.278Z,14.30
2022-10-19T14:23:41.680Z,14.10
2022-10-19T14:26:16.582Z,13.90
2022-10-19T14:28:43.409Z,13.80
2022-10-19T14:31:17.545Z,13.80
2022-10-19T14:33:51.101Z,13.70
2022-10-19T14:36:23.104Z,13.50
2022-10-19T14:38:53.633Z,13.40
2022-10-19T14:41:32.582Z,13.30
2022-10-19T14:44:00.706Z,13.40
2022-10-19T14:46:31.747Z,13.40
2022-10-19T14:49:03.571Z,13.30
2022-10-19T14:51:44.111Z,13.20
2022-10-19T14:54:38.654Z,13.20
2022-10-19T14:57:26.370Z,13.10
2022-10-19T15:00:00.564Z,13.10
2022-10-19T15:02:46.247Z,13.00
2022-10-19T15:05:25.429Z,13.00
2022-10-19T15:07:52.617Z,12.90
2022-10-19T15:10:41.002Z,12.90
2022-10-19T15:13:15.013Z,12.80
2022-10-19T15:15:41.966Z,12.70
2022-10-19T15:18:36.382Z,12.70
2022-10-19T15:21:12.981Z,12.70
2022-10-19T15:23:46.694Z,12.60
2022-10-19T15:26:26.667Z,12.50
2022-10-19T15:28:55.338Z,12.40
2022-10-19T15:31:26.669Z,12.40
2022-10-19T15:34:00.970Z,12.30
2022-10-19T15:36:30.293Z,12.20
2022-10-19T15:39:32.873Z,12.20
2022-10-19T15:42:23.166Z,12.20
2022-10-19T15:52:20.906Z,11.90
2022-10-19T15:54:48.821Z,11.80
2022-10-19T15:57:24.456Z,11.70
2022-10-19T15:59:51.208Z,11.70
2022-10-19T16:02:17.768Z,11.60
2022-10-19T16:04:44.377Z,11.50
2022-10-19T16:07:17.903Z,11.40
2022-10-19T16:09:44.559Z,11.30
2022-10-19T16:12:11.484Z,11.20
2022-10-19T16:14:38.078Z,11.20
2022-10-19T16:17:05.073Z,11.10
2022-10-19T16:19:31.712Z,11.00
2022-10-19T16:21:58.296Z,10.90
2022-10-19T16:24:24.936Z,10.80
2022-10-19T16:26:51.555Z,10.70
2022-10-19T16:29:18.287Z,10.60
2022-10-19T16:31:44.862Z,10.50
2022-10-19T16:34:11.424Z,10.50
2022-10-19T16:36:38.074Z,10.40
2022-10-19T16:39:04.814Z,10.30
2022-10-19T16:41:31.947Z,10.30
2022-10-19T16:43:58.720Z,10.30
2022-10-19T16:46:26.121Z,10.20
2022-10-19T16:48:53.521Z,10.20
2022-10-19T16:51:25.267Z,10.10
2022-10-19T16:53:55.266Z,10.10
2022-10-19T16:56:22.250Z,10.10
2022-10-19T16:58:48.870Z,10.00
2022-10-19T17:01:18.183Z,10.00
2022-10-19T17:03:46.268Z,10.00
2022-10-19T17:06:13.773Z,10.00
2022-10-19T17:09:20.149Z,9.90
2022-10-19T17:11:31.587Z,9.90
2022-10-19T17:14:04.154Z,9.90
2022-10-19T17:16:32.861Z,9.90
2022-10-19T17:19:01.338Z,9.90
2022-10-19T17:21:30.288Z,9.80
2022-10-19T17:23:59.437Z,9.70
2022-10-19T17:26:34.854Z,9.70
2022-10-19T17:29:01.727Z,9.70
2022-10-19T17:31:29.073Z,9.70
2022-10-19T17:33:56.141Z,9.70
2022-10-19T17:36:26.184Z,9.60
2022-10-19T17:38:57.427Z,9.60
2022-10-19T17:41:25.336Z,9.60
2022-10-19T17:43:52.531Z,9.60
2022-10-19T17:46:24.577Z,9.50
2022-10-19T17:48:51.754Z,9.50
2022-10-19T17:51:21.096Z,9.50
2022-10-19T17:53:49.029Z,9.50
2022-10-19T17:56:18.405Z,9.50
2022-10-19T17:58:45.411Z,9.50
2022-10-19T18:01:15.061Z,9.50
2022-10-19T18:03:41.717Z,9.60
2022-10-19T18:06:11.257Z,9.50
2022-10-19T18:08:41.547Z,9.50
2022-10-19T18:11:14.498Z,9.40
2022-10-19T18:13:41.422Z,9.40
2022-10-19T18:16:14.721Z,9.30
2022-10-19T18:18:42.970Z,9.30
2022-10-19T18:21:12.303Z,9.30
2022-10-19T18:23:39.733Z,9.30
2022-10-19T18:26:13.361Z,9.30
2022-10-19T18:28:40.694Z,9.30
2022-10-19T18:31:19.596Z,9.30
2022-10-19T18:33:55.186Z,9.30
2022-10-19T18:36:21.915Z,9.30
2022-10-19T18:38:52.313Z,9.30
2022-10-19T18:41:18.945Z,9.30
2022-10-19T18:43:54.218Z,9.40
2022-10-19T18:46:22.640Z,9.50
2022-10-19T18:48:49.859Z,9.60
2022-10-19T18:51:17.806Z,9.60
2022-10-19T18:53:45.687Z,9.60
2022-10-19T18:56:15.289Z,9.70
2022-10-19T18:58:42.193Z,9.70
2022-10-19T19:01:17.690Z,9.70
2022-10-19T19:03:46.473Z,9.70
2022-10-19T19:06:15.910Z,9.70
2022-10-19T19:11:19.007Z,9.60
2022-10-19T19:13:51.638Z,9.60
2022-10-19T19:16:19.014Z,9.60
2022-10-19T19:18:46.394Z,9.70
2022-10-19T19:21:15.548Z,9.60
2022-10-19T19:23:42.625Z,9.60
2022-10-19T19:26:10.525Z,9.50
2022-10-19T19:28:39.267Z,9.50
2022-10-19T19:31:10.084Z,9.40
2022-10-19T19:33:37.351Z,9.40
2022-10-19T19:36:07.870Z,9.40
2022-10-19T19:38:36.217Z,9.40
2022-10-19T19:41:08.139Z,9.30
2022-10-19T19:43:36.984Z,9.30
2022-10-19T19:46:09.278Z,9.30
2022-10-19T19:48:37.143Z,9.30
2022-10-19T19:51:04.017Z,9.20
2022-10-19T19:53:31.498Z,9.20
2022-10-19T19:55:58.069Z,9.20
2022-10-19T19:58:24.713Z,9.10
2022-10-19T20:00:51.333Z,9.10
2022-10-19T20:03:18.102Z,9.00
2022-10-19T20:05:44.706Z,9.00
2022-10-19T20:08:11.414Z,9.00
2022-10-19T20:10:42.676Z,9.00
2022-10-19T20:13:09.731Z,9.10
2022-10-19T20:15:39.549Z,9.00
2022-10-19T20:18:06.449Z,9.00
2022-10-19T20:20:33.094Z,9.00
2022-10-19T20:22:59.715Z,9.00
2022-10-19T20:25:26.589Z,9.00
2022-10-19T20:27:53.187Z,9.00
2022-10-19T20:30:19.862Z,8.90
2022-10-19T20:32:46.412Z,9.00
2022-10-19T20:35:13.022Z,8.90
2022-10-19T20:37:39.695Z,9.00
2022-10-19T20:40:08.809Z,8.90
2022-10-19T20:42:36.199Z,8.90
2022-10-19T20:45:03.247Z,8.90
2022-10-19T20:47:29.952Z,8.90
2022-10-19T20:49:56.606Z,8.80
2022-10-19T20:52:23.213Z,8.80
2022-10-19T20:54:49.794Z,8.80
2022-10-19T20:57:16.418Z,8.80
2022-10-19T20:59:44.033Z,8.80
2022-10-19T21:02:11.114Z,8.70
2022-10-19T21:04:38.201Z,8.70
2022-10-19T21:07:04.937Z,8.70
2022-10-19T21:09:32.177Z,8.70
2022-10-19T21:11:59.051Z,8.70
2022-10-19T21:14:28.518Z,8.60
2022-10-19T21:16:57.344Z,8.60
2022-10-19T21:19:25.668Z,8.50
2022-10-19T21:21:56.835Z,8.50
2022-10-19T21:24:26.731Z,8.50
2022-10-19T21:26:53.746Z,8.50
2022-10-19T21:29:20.747Z,8.50
2022-10-19T21:31:49.919Z,8.50
2022-10-19T21:34:20.176Z,8.50
2022-10-19T21:36:46.947Z,8.50
2022-10-19T21:39:13.538Z,8.50
2022-10-19T21:41:40.308Z,8.50
2022-10-19T21:44:07.075Z,8.40
2022-10-19T21:46:34.303Z,8.40
2022-10-19T21:49:00.912Z,8.30
2022-10-19T21:51:49.870Z,8.30
2022-10-19T21:54:18.929Z,8.20
2022-10-19T21:56:46.687Z,8.20
2022-10-19T21:59:13.674Z,8.20
2022-10-19T22:01:41.480Z,8.20
2022-10-19T22:04:12.406Z,8.10
2022-10-19T22:06:39.742Z,8.10
2022-10-19T22:09:08.454Z,8.10
2022-10-19T22:11:35.361Z,7.90
2022-10-19T22:14:03.818Z,7.90
2022-10-19T22:16:32.246Z,7.80
2022-10-19T22:18:59.344Z,7.80
2022-10-19T22:21:29.040Z,7.70
2022-10-19T22:24:00.952Z,7.70
2022-10-19T22:26:31.086Z,7.60
2022-10-19T22:28:59.328Z,7.50
2022-10-19T22:31:27.831Z,7.50
2022-10-19T22:33:54.800Z,7.40
2022-10-19T22:36:21.869Z,7.40
2022-10-19T22:38:48.925Z,7.40
2022-10-19T22:41:15.567Z,7.40
2022-10-19T22:43:42.129Z,7.40
2022-10-19T22:46:08.708Z,7.40
2022-10-19T22:48:35.276Z,7.30
2022-10-19T22:51:01.902Z,7.20
2022-10-19T22:53:28.455Z,7.10
2022-10-19T22:55:55.142Z,7.10
2022-10-19T22:58:21.751Z,7.00
2022-10-19T23:01:00.189Z,6.90
2022-10-19T23:03:26.771Z,6.80
2022-10-19T23:05:53.325Z,6.80
2022-10-19T23:08:19.910Z,6.80
2022-10-19T23:10:46.450Z,6.70
2022-10-19T23:13:13.029Z,6.60
2022-10-19T23:15:43.128Z,6.50
2022-10-19T23:18:11.107Z,6.60
2022-10-19T23:20:37.711Z,6.70
2022-10-19T23:23:05.183Z,6.60
2022-10-19T23:28:03.373Z,6.70
2022-10-19T23:30:29.922Z,6.80
2022-10-19T23:32:56.564Z,6.80
2022-10-19T23:35:23.123Z,6.90
2022-10-19T23:37:49.681Z,6.80
2022-10-19T23:40:16.318Z,6.80
2022-10-19T23:42:42.974Z,6.80
2022-10-19T23:45:09.942Z,6.80
2022-10-19T23:47:36.846Z,6.70
2022-10-19T23:50:03.922Z,6.70
2022-10-19T23:52:30.510Z,6.60
2022-10-19T23:54:57.107Z,6.60
2022-10-19T23:57:23.857Z,6.60
2022-10-19T23:59:50.405Z,6.60
